Time;durP1;ratioP1;P1;durP2;ratioP2;P2;SDS_P1;SDS_P2;PMS_P1;PMS_P2;Temp;Humidity;BMP_temperature;BMP_pressure;BME280_temperature;BME280_humidity;BME280_pressure;Samples;Min_cycle;Max_cycle;Signal;HPM_P1;HPM_P2
2022/05/25 00:02:01;;;;;;;1.98;1.20;;;20.70;68.70;;;;;;5085586;28;20035;-65
2022/05/25 00:04:28;;;;;;;3.03;1.35;;;20.70;68.70;;;;;;5087340;28;20023;-66
2022/05/25 00:06:54;;;;;;;1.98;1.00;;;20.60;68.90;;;;;;5092350;28;20031;-65
2022/05/25 00:09:21;;;;;;;3.22;1.30;;;20.60;69.00;;;;;;5088922;28;20024;-64
2022/05/25 00:11:46;;;;;;;3.92;1.40;;;20.50;69.10;;;;;;5092444;28;20035;-64
2022/05/25 00:14:12;;;;;;;2.38;1.33;;;20.60;69.30;;;;;;5078388;28;20024;-66
2022/05/25 00:16:39;;;;;;;6.47;1.40;;;20.50;69.10;;;;;;5086937;28;20032;-61
2022/05/25 00:21:49;;;;;;;4.78;1.15;;;20.50;69.30;;;;;;5088950;28;20031;-66
2022/05/25 00:24:15;;;;;;;3.35;1.20;;;20.60;69.10;;;;;;5088568;28;20050;-66
2022/05/25 00:26:41;;;;;;;3.95;1.40;;;20.50;69.20;;;;;;5087682;28;20702;-64
2022/05/25 00:29:07;;;;;;;4.00;1.30;;;20.50;69.30;;;;;;5088103;28;20040;-66
2022/05/25 00:31:33;;;;;;;2.45;1.38;;;20.50;69.40;;;;;;5088724;28;20032;-64
2022/05/25 00:33:59;;;;;;;3.47;1.33;;;20.50;70.20;;;;;;5087820;28;20312;-66
2022/05/25 00:36:25;;;;;;;3.88;1.33;;;20.50;69.60;;;;;;5086863;28;20028;-65
2022/05/25 00:38:51;;;;;;;3.05;1.55;;;20.50;69.40;;;;;;5061344;28;20168;-63
2022/05/25 00:41:16;;;;;;;4.20;1.60;;;20.50;69.50;;;;;;5084998;28;20044;-68
2022/05/25 00:43:42;;;;;;;2.42;1.00;;;20.40;69.60;;;;;;5068676;28;20040;-62
2022/05/25 00:46:15;;;;;;;3.83;1.40;;;20.40;69.70;;;;;;5086268;28;20034;-66
2022/05/25 00:48:45;;;;;;;2.72;1.20;;;20.50;69.70;;;;;;5085900;28;20022;-63
2022/05/25 00:51:16;;;;;;;3.15;1.48;;;20.50;69.60;;;;;;5059561;28;20040;-66
2022/05/25 00:53:45;;;;;;;2.42;1.45;;;20.50;69.50;;;;;;5089129;28;20392;-66
2022/05/25 00:56:15;;;;;;;3.10;1.23;;;20.50;69.30;;;;;;5090575;28;20020;-66
2022/05/25 00:58:47;;;;;;;4.93;1.42;;;20.50;69.30;;;;;;5081681;28;20024;-61
2022/05/25 01:01:13;;;;;;;1.73;1.20;;;20.50;69.40;;;;;;5086097;28;20074;-65
2022/05/25 01:03:39;;;;;;;2.72;1.10;;;20.50;69.50;;;;;;5090937;28;20020;-61
2022/05/25 01:06:29;;;;;;;2.85;1.08;;;20.50;69.50;;;;;;5066776;28;20369;-67
2022/05/25 01:09:06;;;;;;;2.80;1.10;;;20.50;69.30;;;;;;5082147;28;20043;-66
2022/05/25 01:12:09;;;;;;;2.67;1.00;;;20.50;69.90;;;;;;5090272;28;20064;-65
2022/05/25 01:15:13;;;;;;;1.65;1.15;;;20.50;69.50;;;;;;5089892;28;20028;-65
2022/05/25 01:17:57;;;;;;;3.05;1.15;;;20.50;70.30;;;;;;5034595;28;20100;-61
2022/05/25 01:20:34;;;;;;;1.98;1.10;;;20.50;69.60;;;;;;5082466;28;20664;-64
2022/05/25 01:23:25;;;;;;;2.50;1.00;;;20.50;69.70;;;;;;5089646;28;20125;-65
2022/05/25 01:26:05;;;;;;;1.40;0.88;;;20.30;70.00;;;;;;5062074;28;20112;-65
2022/05/25 01:28:59;;;;;;;3.28;1.20;;;20.40;70.10;;;;;;5081815;28;20024;-66
2022/05/25 01:31:41;;;;;;;1.27;1.05;;;20.30;70.00;;;;;;5063140;28;20509;-65
2022/05/25 01:34:34;;;;;;;1.23;0.98;;;20.40;70.10;;;;;;5089628;28;20039;-65
2022/05/25 01:37:19;;;;;;;0.98;0.88;;;20.30;70.30;;;;;;5087166;28;20025;-65
2022/05/25 01:40:00;;;;;;;3.33;1.00;;;20.30;70.40;;;;;;5062034;28;20032;-65
2022/05/25 01:42:34;;;;;;;2.53;1.05;;;20.40;70.10;;;;;;5084712;28;20016;-64
2022/05/25 01:45:05;;;;;;;1.90;0.90;;;20.40;70.20;;;;;;5069943;28;20234;-66
2022/05/25 01:47:33;;;;;;;1.35;0.80;;;20.30;70.20;;;;;;5087292;28;20047;-66
2022/05/25 01:50:10;;;;;;;1.38;0.85;;;20.30;70.30;;;;;;5087807;28;20205;-66
2022/05/25 01:52:43;;;;;;;1.40;1.10;;;20.30;70.30;;;;;;5087100;28;20043;-67
2022/05/25 01:55:14;;;;;;;1.77;1.00;;;20.30;70.60;;;;;;5085071;28;20035;-66
2022/05/25 01:57:44;;;;;;;3.08;1.17;;;20.30;70.70;;;;;;5088103;28;20032;-63
2022/05/25 02:00:25;;;;;;;2.45;1.13;;;20.30;70.70;;;;;;5087687;28;20492;-63
2022/05/25 02:05:36;;;;;;;;;;;20.20;70.60;;;;;;5086902;28;20059;-66
2022/05/25 02:08:26;;;;;;;1.30;0.80;;;20.30;70.60;;;;;;5068253;28;20091;-66
2022/05/25 02:11:09;;;;;;;1.33;0.80;;;20.20;70.50;;;;;;5084802;28;20024;-65
2022/05/25 02:13:54;;;;;;;1.50;0.90;;;20.10;70.70;;;;;;5071070;28;20028;-66
2022/05/25 02:16:32;;;;;;;5.20;1.13;;;20.10;70.90;;;;;;5086695;28;20475;-66
2022/05/25 02:19:31;;;;;;;1.92;1.00;;;20.20;70.70;;;;;;5066302;28;20024;-66
2022/05/25 02:22:06;;;;;;;2.95;0.88;;;20.20;70.50;;;;;;5087055;28;20047;-65
2022/05/25 02:24:48;;;;;;;2.80;0.80;;;20.10;70.40;;;;;;5085863;28;20105;-65
2022/05/25 02:27:55;;;;;;;1.63;0.90;;;20.20;70.10;;;;;;5061674;28;20047;-64
2022/05/25 02:30:24;;;;;;;1.20;0.93;;;20.20;69.80;;;;;;5064873;28;20063;-67
2022/05/25 02:32:59;;;;;;;2.75;0.80;;;20.30;69.50;;;;;;5087006;28;20156;-66
2022/05/25 02:35:26;;;;;;;4.68;0.88;;;20.20;69.60;;;;;;5087854;28;20035;-65
2022/05/25 02:38:11;;;;;;;1.50;0.80;;;20.20;69.40;;;;;;5069011;28;20032;-66
2022/05/25 02:40:39;;;;;;;1.05;0.77;;;20.30;69.40;;;;;;5084708;28;20028;-65
2022/05/25 02:43:07;;;;;;;1.30;0.93;;;20.30;69.40;;;;;;5088611;28;20047;-65
2022/05/25 02:45:37;;;;;;;1.15;0.80;;;20.30;69.30;;;;;;5085016;28;20040;-66
2022/05/25 02:48:03;;;;;;;1.15;0.82;;;20.20;69.50;;;;;;5088265;28;20032;-65
2022/05/25 02:50:29;;;;;;;1.42;0.90;;;20.10;69.20;;;;;;5089020;28;20051;-65
2022/05/25 02:52:56;;;;;;;1.65;0.90;;;20.10;69.30;;;;;;5059032;28;20483;-65
2022/05/25 02:55:22;;;;;;;1.67;0.93;;;20.20;69.20;;;;;;5085417;28;20282;-65
2022/05/25 02:57:48;;;;;;;2.33;0.73;;;20.20;69.00;;;;;;5083704;28;20024;-66
2022/05/25 03:00:14;;;;;;;2.08;1.10;;;20.10;69.00;;;;;;5086927;28;20477;-65
2022/05/25 03:02:40;;;;;;;1.02;0.80;;;20.20;69.10;;;;;;5088273;28;20358;-61
2022/05/25 03:05:08;;;;;;;1.95;0.80;;;20.20;68.90;;;;;;5091080;28;20031;-65
2022/05/25 03:07:35;;;;;;;2.08;0.98;;;20.10;69.00;;;;;;5092870;28;20169;-64
2022/05/25 03:10:02;;;;;;;3.10;0.90;;;20.10;69.00;;;;;;5091645;28;20476;-64
2022/05/25 03:12:28;;;;;;;2.55;1.00;;;20.10;68.70;;;;;;5068928;28;20036;-64
2022/05/25 03:14:53;;;;;;;2.58;0.90;;;20.10;69.00;;;;;;5072283;28;20035;-65
2022/05/25 03:17:19;;;;;;;2.20;1.25;;;20.00;69.20;;;;;;5091658;28;20062;-65
2022/05/25 03:19:56;;;;;;;3.22;1.00;;;20.00;69.20;;;;;;5081813;28;20079;-66
2022/05/25 03:22:22;;;;;;;3.03;0.90;;;19.90;69.40;;;;;;5088654;28;20149;-66
2022/05/25 03:24:48;;;;;;;2.05;0.80;;;19.90;69.30;;;;;;5089556;28;20016;-65
2022/05/25 03:27:15;;;;;;;1.15;0.70;;;19.90;69.40;;;;;;5090508;28;20111;-66
2022/05/25 03:29:42;;;;;;;3.08;1.15;;;19.90;69.10;;;;;;5092816;28;20070;-66
2022/05/25 03:32:09;;;;;;;3.63;0.95;;;20.00;69.20;;;;;;5091789;28;20039;-67
2022/05/25 03:34:35;;;;;;;1.50;0.60;;;20.00;68.60;;;;;;5092579;28;20538;-66
2022/05/25 03:37:01;;;;;;;3.08;0.90;;;20.00;68.40;;;;;;5092533;28;20287;-67
2022/05/25 03:39:28;;;;;;;4.05;1.00;;;20.00;68.50;;;;;;5084258;28;20100;-66
2022/05/25 03:41:56;;;;;;;2.40;0.90;;;20.10;68.40;;;;;;5090247;28;20465;-66
2022/05/25 03:44:23;;;;;;;1.77;0.90;;;20.00;68.50;;;;;;5091900;28;20123;-66
2022/05/25 03:46:52;;;;;;;1.30;0.70;;;19.90;69.40;;;;;;5090625;28;20428;-67
2022/05/25 03:49:18;;;;;;;3.03;0.80;;;20.00;68.50;;;;;;5091370;28;20113;-66
2022/05/25 03:51:44;;;;;;;4.75;0.60;;;20.00;68.60;;;;;;5086819;28;20028;-64
2022/05/25 03:54:11;;;;;;;1.85;0.80;;;20.00;68.70;;;;;;5091616;28;20034;-67
2022/05/25 03:56:36;;;;;;;1.75;0.88;;;20.00;68.30;;;;;;5084759;28;20416;-67
2022/05/25 03:59:20;;;;;;;1.17;0.80;;;20.00;68.40;;;;;;5091128;28;20532;-67
2022/05/25 04:01:46;;;;;;;1.38;0.80;;;20.10;68.60;;;;;;5089766;28;20020;-65
2022/05/25 04:04:12;;;;;;;2.53;0.80;;;20.00;68.70;;;;;;5088434;28;20031;-64
2022/05/25 04:06:38;;;;;;;2.60;0.70;;;20.00;69.50;;;;;;5090434;28;20055;-68
2022/05/25 04:09:05;;;;;;;0.60;0.60;;;20.00;69.00;;;;;;5090350;28;20061;-66
2022/05/25 04:11:32;;;;;;;1.00;0.60;;;20.10;68.50;;;;;;5087931;28;20062;-65
2022/05/25 04:13:59;;;;;;;1.48;0.70;;;20.10;68.20;;;;;;5072555;28;20123;-63
2022/05/25 04:16:25;;;;;;;1.65;0.93;;;20.20;68.10;;;;;;5089790;28;20115;-65
2022/05/25 04:18:51;;;;;;;1.00;0.80;;;20.20;68.10;;;;;;5087368;28;20115;-67
2022/05/25 04:21:17;;;;;;;0.75;0.63;;;20.20;67.90;;;;;;5092445;28;20028;-66
2022/05/25 04:23:43;;;;;;;0.88;0.60;;;20.20;67.80;;;;;;5072767;28;20028;-62
2022/05/25 04:26:09;;;;;;;16.65;1.60;;;20.30;67.60;;;;;;5085313;28;20073;-65
2022/05/25 04:28:35;;;;;;;14.35;1.40;;;20.30;67.60;;;;;;5070902;28;20067;-67
2022/05/25 04:31:01;;;;;;;7.78;1.00;;;20.30;67.70;;;;;;5088265;28;20242;-65
2022/05/25 04:33:29;;;;;;;1.83;0.80;;;20.30;68.30;;;;;;5089276;28;20034;-64
2022/05/25 04:35:56;;;;;;;1.65;0.80;;;20.30;68.30;;;;;;5086234;28;20032;-66
2022/05/25 04:38:21;;;;;;;2.13;0.80;;;20.30;68.60;;;;;;5087468;28;20024;-66
2022/05/25 04:40:47;;;;;;;5.60;1.02;;;20.30;69.20;;;;;;5088141;28;20107;-66
2022/05/25 04:43:18;;;;;;;1.17;0.82;;;20.30;69.50;;;;;;5083116;28;20530;-66
2022/05/25 04:45:47;;;;;;;3.65;1.00;;;20.30;69.50;;;;;;5081183;28;20051;-65
2022/05/25 04:48:14;;;;;;;1.17;0.80;;;20.30;69.80;;;;;;5084818;28;20020;-67
2022/05/25 04:50:41;;;;;;;1.98;0.90;;;20.30;69.40;;;;;;5084934;28;20036;-64
2022/05/25 04:53:09;;;;;;;1.63;0.90;;;20.40;69.60;;;;;;5083565;28;20085;-66
2022/05/25 04:58:46;;;;;;;0.90;0.70;;;20.40;69.90;;;;;;4993741;28;20064;-66
2022/05/25 05:01:13;;;;;;;2.67;0.85;;;20.40;69.70;;;;;;5077340;28;20250;-67
2022/05/25 05:03:39;;;;;;;1.90;1.08;;;20.40;69.60;;;;;;5064104;28;20031;-65
2022/05/25 05:06:07;;;;;;;1.23;0.93;;;20.40;69.40;;;;;;5078730;28;20404;-65
2022/05/25 05:08:33;;;;;;;2.28;0.82;;;20.40;69.10;;;;;;5089399;28;20020;-68
2022/05/25 05:11:16;;;;;;;1.95;0.70;;;20.30;68.90;;;;;;5087836;28;20020;-67
2022/05/25 05:13:42;;;;;;;0.80;0.70;;;20.30;69.20;;;;;;5081512;28;20078;-63
2022/05/25 05:16:11;;;;;;;2.50;0.90;;;20.40;68.80;;;;;;5089462;28;20032;-68
2022/05/25 05:18:37;;;;;;;4.47;1.00;;;20.30;68.80;;;;;;5076320;28;20048;-68
2022/05/25 05:21:04;;;;;;;2.78;0.80;;;20.30;68.70;;;;;;5082233;28;20129;-69
2022/05/25 05:23:30;;;;;;;3.33;1.10;;;20.30;68.70;;;;;;5067652;28;20051;-66
2022/05/25 05:25:55;;;;;;;4.30;1.40;;;20.30;68.90;;;;;;5087622;28;20032;-68
2022/05/25 05:28:28;;;;;;;1.75;1.10;;;20.30;68.90;;;;;;5086774;28;20171;-66
2022/05/25 05:30:57;;;;;;;2.63;1.10;;;20.40;69.10;;;;;;5066761;28;20043;-68
2022/05/25 05:33:25;;;;;;;2.17;1.10;;;20.40;68.80;;;;;;5086198;28;20024;-67
2022/05/25 05:35:58;;;;;;;1.73;1.20;;;20.40;68.50;;;;;;5081002;28;20032;-61
2022/05/25 05:38:25;;;;;;;4.20;1.38;;;20.40;68.30;;;;;;5088330;28;20073;-63
2022/05/25 05:40:53;;;;;;;1.83;1.20;;;20.40;68.80;;;;;;5082987;28;20058;-62
2022/05/25 05:43:19;;;;;;;2.58;1.42;;;20.60;68.50;;;;;;5086102;28;20024;-63
2022/05/25 05:45:46;;;;;;;6.85;1.38;;;20.70;67.90;;;;;;5070591;28;20067;-61
2022/05/25 05:48:35;;;;;;;1.58;1.30;;;20.90;67.60;;;;;;5086961;28;20183;-64
2022/05/25 05:51:04;;;;;;;3.33;1.65;;;20.80;66.50;;;;;;5083255;28;20016;-62
2022/05/25 05:53:30;;;;;;;5.38;1.10;;;20.70;66.70;;;;;;5090781;28;20050;-63
2022/05/25 05:55:57;;;;;;;2.83;1.25;;;20.80;66.50;;;;;;5089910;28;20027;-61
2022/05/25 05:58:23;;;;;;;9.52;1.50;;;20.80;66.60;;;;;;5090252;28;20034;-64
2022/05/25 06:00:49;;;;;;;3.17;1.50;;;20.90;66.30;;;;;;5088316;28;20046;-62
2022/05/25 06:03:15;;;;;;;3.10;1.40;;;20.90;66.00;;;;;;5083595;28;20373;-63
2022/05/25 06:05:41;;;;;;;5.47;4.30;;;20.80;66.00;;;;;;5080710;28;20024;-62
2022/05/25 06:08:23;;;;;;;5.07;1.35;;;20.60;66.30;;;;;;5080223;28;20029;-64
2022/05/25 06:10:49;;;;;;;4.45;1.23;;;20.70;66.50;;;;;;5073926;28;20081;-62
2022/05/25 06:13:16;;;;;;;3.15;1.33;;;20.70;66.70;;;;;;5101544;28;20028;-63
2022/05/25 06:21:17;;;;;;;3.17;1.58;;;20.60;66.40;;;;;;5080604;28;20035;-63
2022/05/25 06:23:43;;;;;;;8.27;1.77;;;20.50;66.80;;;;;;5089283;28;20016;-62
2022/05/25 06:26:08;;;;;;;2.35;1.52;;;20.50;67.00;;;;;;5078801;28;20024;-63
2022/05/25 06:28:34;;;;;;;8.52;3.33;;;20.60;66.90;;;;;;5084375;28;20025;-62
2022/05/25 06:31:00;;;;;;;9.23;2.08;;;20.60;67.00;;;;;;5082457;28;20369;-63
2022/05/25 06:33:26;;;;;;;3.97;1.58;;;20.70;67.10;;;;;;5075982;28;20028;-63
2022/05/25 06:35:52;;;;;;;5.68;1.83;;;20.80;66.60;;;;;;5088424;28;20027;-62
2022/05/25 06:38:18;;;;;;;3.72;1.60;;;21.00;65.90;;;;;;5064648;28;20020;-62
2022/05/25 06:40:43;;;;;;;5.72;1.80;;;21.10;65.30;;;;;;5088898;28;20059;-61
2022/05/25 06:43:09;;;;;;;5.70;1.92;;;21.10;65.50;;;;;;5079716;28;20032;-62
2022/05/25 06:45:35;;;;;;;9.00;1.60;;;21.20;65.30;;;;;;5084653;28;20487;-63
2022/05/25 06:48:04;;;;;;;6.80;1.90;;;21.30;65.10;;;;;;5083817;28;20020;-61
2022/05/25 06:50:30;;;;;;;6.88;2.00;;;21.00;65.30;;;;;;5087293;28;20154;-63
2022/05/25 06:52:55;;;;;;;5.82;1.90;;;21.10;65.60;;;;;;5067156;28;20111;-61
2022/05/25 06:55:21;;;;;;;5.38;1.80;;;21.20;65.20;;;;;;5088955;28;20133;-63
2022/05/25 06:57:48;;;;;;;7.40;2.10;;;21.30;65.00;;;;;;5052041;28;20074;-61
2022/05/25 07:00:14;;;;;;;3.10;1.80;;;21.40;64.30;;;;;;5083407;28;20487;-64
2022/05/25 07:02:40;;;;;;;5.53;1.80;;;21.40;64.30;;;;;;5087994;28;20485;-63
2022/05/25 07:05:06;;;;;;;3.95;1.88;;;21.50;64.20;;;;;;5068462;28;20099;-64
2022/05/25 07:07:32;;;;;;;5.03;1.63;;;21.50;63.50;;;;;;5058890;28;20031;-62
2022/05/25 07:09:58;;;;;;;3.85;1.70;;;21.60;63.90;;;;;;5083627;28;20060;-62
2022/05/25 07:12:24;;;;;;;6.78;2.15;;;21.70;63.90;;;;;;5060783;28;20546;-62
2022/05/25 07:14:50;;;;;;;7.75;2.00;;;21.90;63.40;;;;;;5089371;28;20055;-61
2022/05/25 07:17:16;;;;;;;2.65;1.52;;;21.90;63.10;;;;;;5079045;28;20052;-63
2022/05/25 07:19:41;;;;;;;3.35;1.58;;;21.90;62.80;;;;;;5085762;28;20031;-64
2022/05/25 07:22:09;;;;;;;8.30;2.17;;;21.70;63.20;;;;;;5088720;28;20020;-66
2022/05/25 07:24:35;;;;;;;6.97;2.05;;;21.70;63.60;;;;;;5090271;28;20077;-63
2022/05/25 07:27:01;;;;;;;4.28;2.60;;;21.80;63.90;;;;;;5089386;28;20024;-64
2022/05/25 07:29:26;;;;;;;2.33;1.50;;;22.00;63.80;;;;;;5084484;28;20029;-63
2022/05/25 07:31:58;;;;;;;3.55;1.60;;;22.30;63.00;;;;;;5072524;28;20052;-61
2022/05/25 07:34:45;;;;;;;4.03;1.70;;;22.60;61.90;;;;;;5087032;28;20032;-64
2022/05/25 07:37:19;;;;;;;2.10;1.35;;;22.70;60.90;;;;;;5081318;28;20017;-62
2022/05/25 07:39:51;;;;;;;5.18;1.70;;;22.70;60.90;;;;;;5065723;28;20028;-64
2022/05/25 07:42:19;;;;;;;4.35;1.50;;;22.80;60.80;;;;;;5085398;28;20083;-65
2022/05/25 07:44:53;;;;;;;8.30;1.40;;;22.70;60.20;;;;;;5049611;28;20347;-64
2022/05/25 07:47:19;;;;;;;;;;;22.50;60.70;;;;;;5070061;28;20069;-64
2022/05/25 07:49:44;;;;;;;7.38;1.50;;;22.70;60.80;;;;;;5070342;28;19908;-62
2022/05/25 07:52:10;;;;;;;4.00;1.40;;;22.90;59.90;;;;;;5070178;28;20158;-62
2022/05/25 07:54:39;;;;;;;3.30;2.00;;;23.30;59.30;;;;;;5071922;28;20033;-63
2022/05/25 07:57:05;;;;;;;9.02;1.92;;;23.60;58.60;;;;;;5070632;28;20024;-63
2022/05/25 07:59:31;;;;;;;5.63;1.63;;;24.40;58.00;;;;;;5070854;28;20020;-64
2022/05/25 08:05:54;;;;;;;3.60;1.35;;;26.20;52.10;;;;;;5070300;28;20044;-65
2022/05/25 08:07:52;;;;;;;3.28;1.30;;;26.20;51.50;;;;;;5062818;28;20094;-63
2022/05/25 08:10:24;;;;;;;7.60;1.40;;;26.10;51.80;;;;;;5044520;28;20021;-64
2022/05/25 08:12:52;;;;;;;2.03;1.05;;;26.00;51.50;;;;;;5054470;28;20037;-64
2022/05/25 08:15:18;;;;;;;2.78;0.98;;;25.90;51.80;;;;;;5067879;28;20017;-67
2022/05/25 08:17:44;;;;;;;2.35;1.25;;;25.70;51.60;;;;;;5066910;28;20037;-65
2022/05/25 08:20:11;;;;;;;5.72;2.70;;;25.30;52.30;;;;;;5068540;28;20512;-65
2022/05/25 08:22:37;;;;;;;5.05;1.25;;;25.00;52.90;;;;;;5053022;28;20363;-65
2022/05/25 08:25:05;;;;;;;3.13;1.63;;;24.90;53.30;;;;;;5070759;28;20028;-63
2022/05/25 08:27:31;;;;;;;9.07;1.90;;;24.60;53.90;;;;;;5066386;28;20073;-65
2022/05/25 08:29:58;;;;;;;3.53;0.82;;;24.60;54.20;;;;;;5069949;28;20074;-61
2022/05/25 08:32:23;;;;;;;4.60;1.30;;;24.80;54.20;;;;;;5068243;28;20504;-64
2022/05/25 08:34:49;;;;;;;2.97;1.08;;;25.10;53.00;;;;;;5067660;28;20045;-66
2022/05/25 08:37:34;;;;;;;3.13;1.40;;;25.10;53.00;;;;;;5055262;28;20453;-64
2022/05/25 08:39:59;;;;;;;5.85;1.13;;;25.40;53.00;;;;;;5058864;28;20069;-65
2022/05/25 08:42:29;;;;;;;3.47;1.10;;;25.80;51.80;;;;;;5071413;28;20103;-64
2022/05/25 08:44:56;;;;;;;2.10;1.00;;;26.00;50.30;;;;;;5072099;28;20489;-63
2022/05/25 08:47:22;;;;;;;5.07;1.30;;;26.00;50.80;;;;;;5072254;28;20051;-66
2022/05/25 08:49:51;;;;;;;1.77;0.90;;;26.40;50.10;;;;;;5068191;28;20476;-66
2022/05/25 08:52:24;;;;;;;3.05;1.48;;;26.50;50.00;;;;;;5062561;28;20032;-64
2022/05/25 08:54:50;;;;;;;10.68;1.80;;;26.60;49.60;;;;;;5074050;28;20033;-67
2022/05/25 08:57:22;;;;;;;3.60;1.35;;;26.60;49.40;;;;;;5060562;28;20087;-67
2022/05/25 09:00:00;;;;;;;4.35;1.40;;;26.80;49.40;;;;;;5091255;28;20027;-64
2022/05/25 09:02:57;;;;;;;4.47;1.00;;;27.00;48.30;;;;;;5071122;28;20024;-63
2022/05/25 09:05:34;;;;;;;5.20;1.40;;;26.90;48.10;;;;;;5072011;28;20063;-66
2022/05/25 09:08:08;;;;;;;4.25;1.30;;;26.60;49.20;;;;;;5056935;28;20032;-66
2022/05/25 09:10:43;;;;;;;3.45;1.35;;;28.10;48.20;;;;;;5069035;28;20115;-66
2022/05/25 09:13:18;;;;;;;4.50;1.30;;;28.90;44.50;;;;;;5074945;28;20518;-65
2022/05/25 09:18:43;;;;;;;2.35;1.27;;;29.00;44.70;;;;;;5075644;28;20040;-66
2022/05/25 09:21:09;;;;;;;7.70;1.58;;;28.80;44.30;;;;;;5076922;28;20021;-65
2022/05/25 09:23:55;;;;;;;8.15;1.90;;;28.80;45.00;;;;;;5060394;28;20020;-64
2022/05/25 09:26:20;;;;;;;4.95;1.08;;;28.90;44.60;;;;;;5058340;28;20031;-68
2022/05/25 09:28:53;;;;;;;1.85;1.17;;;29.00;44.10;;;;;;5088948;28;20039;-65
2022/05/25 09:31:26;;;;;;;2.33;1.30;;;29.30;43.80;;;;;;5086871;28;20027;-66
2022/05/25 09:34:00;;;;;;;5.18;1.38;;;29.50;43.50;;;;;;5086931;28;20055;-64
2022/05/25 09:36:38;;;;;;;3.10;1.35;;;29.70;43.00;;;;;;5087616;28;20028;-65
2022/05/25 09:39:12;;;;;;;3.58;1.27;;;29.70;42.50;;;;;;5086812;28;20202;-64
2022/05/25 09:41:43;;;;;;;4.75;1.08;;;29.80;42.10;;;;;;5085260;28;20103;-64
2022/05/25 09:44:11;;;;;;;3.67;1.48;;;29.50;42.10;;;;;;5069793;28;20093;-66
2022/05/25 09:46:47;;;;;;;2.20;1.20;;;29.00;43.00;;;;;;5065594;28;20036;-65
2022/05/25 09:49:41;;;;;;;3.33;1.08;;;28.30;44.10;;;;;;5065024;28;20032;-66
2022/05/25 09:52:16;;;;;;;3.72;1.70;;;28.00;45.20;;;;;;5065107;28;20028;-66
2022/05/25 09:55:23;;;;;;;5.47;1.42;;;28.00;45.30;;;;;;5078209;28;20028;-65
2022/05/25 09:57:54;;;;;;;4.40;1.20;;;27.70;45.60;;;;;;4988171;28;20081;-66
2022/05/25 10:00:41;;;;;;;3.85;2.05;;;27.50;46.00;;;;;;4988193;28;20018;-63
2022/05/25 10:03:22;;;;;;;7.93;2.05;;;27.50;46.50;;;;;;5028280;28;20028;-66
2022/05/25 10:05:57;;;;;;;5.53;2.38;;;27.70;46.50;;;;;;5052759;28;20405;-66
2022/05/25 10:08:39;;;;;;;2.10;1.27;;;27.70;46.20;;;;;;5070246;28;20028;-66
2022/05/25 10:11:33;;;;;;;4.35;1.77;;;27.60;46.50;;;;;;5053998;28;20036;-66
2022/05/25 10:14:35;;;;;;;4.45;1.50;;;27.60;47.10;;;;;;5069397;28;20025;-67
2022/05/25 10:17:28;;;;;;;6.93;1.88;;;27.90;46.50;;;;;;5003282;28;20030;-63
2022/05/25 10:19:56;;;;;;;5.18;1.98;;;27.70;46.50;;;;;;5081782;28;20046;-65
2022/05/25 10:22:33;;;;;;;5.07;1.80;;;27.60;46.60;;;;;;5067506;28;20557;-65
2022/05/25 10:25:07;;;;;;;4.13;2.45;;;27.40;47.10;;;;;;5082242;28;20465;-66
2022/05/25 10:27:39;;;;;;;3.58;1.33;;;27.40;47.10;;;;;;5084843;28;21865;-66
2022/05/25 10:38:44;;;;;;;3.10;1.10;;;28.00;45.20;;;;;;5070842;28;20044;-65
2022/05/25 10:44:22;;;;;;;2.75;0.95;;;27.50;46.40;;;;;;5081136;28;20122;-65
2022/05/25 10:46:58;;;;;;;7.85;5.35;;;27.50;46.20;;;;;;5065034;28;20068;-65
2022/05/25 10:49:34;;;;;;;11.50;4.55;;;27.50;46.00;;;;;;5069026;28;20276;-65
2022/05/25 10:52:08;;;;;;;2.80;1.00;;;27.60;46.10;;;;;;5056679;28;20104;-64
2022/05/25 10:54:45;;;;;;;9.65;1.55;;;27.40;45.60;;;;;;5043979;28;20040;-65
2022/05/25 10:57:47;;;;;;;2.88;1.20;;;27.40;46.30;;;;;;5034723;28;20074;-64
2022/05/25 11:00:20;;;;;;;1.70;1.00;;;27.50;46.20;;;;;;5056069;28;20025;-66
2022/05/25 11:02:55;;;;;;;5.35;1.90;;;27.90;45.70;;;;;;5060318;28;20134;-66
2022/05/25 11:05:40;;;;;;;6.78;1.42;;;27.80;45.70;;;;;;5053574;28;20017;-64
2022/05/25 11:08:27;;;;;;;2.85;1.58;;;27.30;46.10;;;;;;5056028;28;20048;-63
2022/05/25 11:11:16;;;;;;;18.10;3.50;;;27.20;46.70;;;;;;5042057;28;20021;-65
2022/05/25 11:14:04;;;;;;;3.10;1.27;;;27.40;46.70;;;;;;5038120;28;20044;-65
2022/05/25 11:16:49;;;;;;;5.95;1.45;;;27.40;46.00;;;;;;5065277;28;20029;-65
2022/05/25 11:19:45;;;;;;;3.35;1.30;;;27.50;45.80;;;;;;5039788;28;20025;-66
2022/05/25 11:22:26;;;;;;;3.28;1.23;;;27.50;45.70;;;;;;5046578;28;20480;-65
2022/05/25 11:25:17;;;;;;;4.10;1.40;;;27.30;45.30;;;;;;5062449;28;20367;-64
2022/05/25 11:27:58;;;;;;;2.28;1.00;;;27.10;45.70;;;;;;5066081;28;20021;-65
2022/05/25 11:30:59;;;;;;;6.38;1.60;;;26.90;46.00;;;;;;5044478;28;20100;-65
2022/05/25 11:34:02;;;;;;;2.47;1.30;;;26.80;46.60;;;;;;5063234;28;20029;-64
2022/05/25 11:36:50;;;;;;;4.18;1.25;;;26.40;47.30;;;;;;5061708;28;20028;-66
2022/05/25 11:39:23;;;;;;;3.70;1.48;;;26.10;48.00;;;;;;5062511;28;20090;-63
2022/05/25 11:42:03;;;;;;;4.22;1.25;;;25.90;48.60;;;;;;5046392;28;20544;-63
2022/05/25 11:44:34;;;;;;;3.35;1.30;;;25.90;48.70;;;;;;5053932;28;20493;-64
2022/05/25 11:47:12;;;;;;;3.72;1.90;;;25.80;49.10;;;;;;5066373;28;20031;-65
2022/05/25 11:50:11;;;;;;;5.68;1.80;;;25.70;49.40;;;;;;5049374;28;20107;-65
2022/05/25 11:52:53;;;;;;;5.15;1.40;;;25.70;49.40;;;;;;5065187;28;20079;-63
2022/05/25 11:55:22;;;;;;;4.20;1.90;;;25.50;49.80;;;;;;5065132;28;20046;-65
2022/05/25 11:58:18;;;;;;;7.65;1.65;;;25.30;50.30;;;;;;5082896;28;20031;-65
2022/05/25 12:00:55;;;;;;;7.13;1.60;;;25.10;51.10;;;;;;5082177;28;20039;-64
2022/05/25 12:03:46;;;;;;;5.47;1.63;;;24.90;51.50;;;;;;5082200;28;20020;-66
2022/05/25 12:06:31;;;;;;;4.32;1.38;;;24.90;52.10;;;;;;5061704;28;20027;-65
2022/05/25 12:09:22;;;;;;;4.63;1.52;;;24.80;52.50;;;;;;5066454;28;20016;-64
2022/05/25 12:12:29;;;;;;;4.82;1.60;;;24.70;52.70;;;;;;5061011;28;20017;-65
2022/05/25 12:15:14;;;;;;;4.00;1.63;;;24.60;52.80;;;;;;5064224;28;20504;-65
2022/05/25 12:18:09;;;;;;;4.28;1.80;;;24.30;53.50;;;;;;5083007;28;20016;-65
2022/05/25 12:20:40;;;;;;;3.83;1.70;;;24.20;54.00;;;;;;5064361;28;20454;-64
2022/05/25 12:23:13;;;;;;;5.82;1.67;;;24.20;55.00;;;;;;5081772;28;20482;-64
2022/05/25 12:25:48;;;;;;;6.70;2.88;;;24.00;55.10;;;;;;5065695;28;20091;-64
2022/05/25 12:28:15;;;;;;;7.22;2.00;;;24.00;55.60;;;;;;5079978;28;20385;-64
2022/05/25 12:30:44;;;;;;;4.28;1.63;;;23.80;55.60;;;;;;5083931;28;20094;-65
2022/05/25 12:33:19;;;;;;;4.90;3.00;;;23.80;56.00;;;;;;5080710;28;20380;-66
2022/05/25 12:35:49;;;;;;;6.20;1.70;;;23.70;56.00;;;;;;5062997;28;20043;-64
2022/05/25 12:38:19;;;;;;;4.55;1.83;;;23.70;55.70;;;;;;5081336;28;20119;-65
2022/05/25 12:40:46;;;;;;;3.67;2.08;;;23.70;55.50;;;;;;5082193;28;20017;-64
2022/05/25 12:43:46;;;;;;;5.25;1.73;;;23.70;55.10;;;;;;5063579;28;20020;-64
2022/05/25 12:48:58;;;;;;;;;;;23.40;55.60;;;;;;5083071;28;20051;-63
2022/05/25 12:51:36;;;;;;;5.00;1.92;;;23.30;56.00;;;;;;5069802;28;19908;-64
2022/05/25 12:54:06;;;;;;;4.10;1.33;;;23.20;56.00;;;;;;5082110;28;20012;-63
2022/05/25 12:56:36;;;;;;;4.07;1.50;;;23.10;55.70;;;;;;5066997;28;20039;-64
2022/05/25 12:59:11;;;;;;;4.05;1.52;;;23.00;56.20;;;;;;5052822;28;20103;-65
2022/05/25 13:01:40;;;;;;;5.85;1.95;;;22.90;56.70;;;;;;5083215;28;20146;-65
2022/05/25 13:04:21;;;;;;;3.97;1.63;;;22.80;56.90;;;;;;5059619;28;20428;-65
2022/05/25 13:06:47;;;;;;;3.70;1.55;;;22.70;56.80;;;;;;5079942;28;20475;-65
2022/05/25 13:09:18;;;;;;;10.60;1.88;;;22.60;57.10;;;;;;5082414;28;20032;-67
2022/05/25 13:11:49;;;;;;;13.50;5.10;;;22.50;57.60;;;;;;5087265;28;20031;-64
2022/05/25 13:14:19;;;;;;;5.43;1.80;;;22.50;59.20;;;;;;5089303;28;20028;-65
2022/05/25 13:16:45;;;;;;;6.40;1.92;;;22.50;59.10;;;;;;5076656;28;20460;-64
2022/05/25 13:19:36;;;;;;;5.53;3.17;;;22.50;60.10;;;;;;5076751;28;20013;-66
2022/05/25 13:22:17;;;;;;;8.35;3.80;;;22.60;59.70;;;;;;5067451;28;20334;-66
2022/05/25 13:25:20;;;;;;;6.13;2.70;;;22.70;59.80;;;;;;5078580;28;20021;-65
2022/05/25 13:28:09;;;;;;;4.40;2.58;;;22.80;59.70;;;;;;5059851;28;20528;-66
2022/05/25 13:30:54;;;;;;;8.85;3.08;;;22.80;60.00;;;;;;5091883;28;20111;-65
2022/05/25 13:33:19;;;;;;;;;;;22.80;59.80;;;;;;5068801;28;20020;-66
2022/05/25 13:36:04;;;;;;;4.28;2.65;;;22.90;59.90;;;;;;5057114;28;19931;-65
2022/05/25 13:38:46;;;;;;;5.28;2.83;;;23.00;59.90;;;;;;5081041;28;20024;-64
2022/05/25 13:41:22;;;;;;;5.20;2.63;;;22.90;59.90;;;;;;5075770;28;20468;-63
2022/05/25 13:43:59;;;;;;;7.57;4.10;;;22.90;60.20;;;;;;5061358;28;20047;-66
2022/05/25 13:46:41;;;;;;;6.90;4.32;;;22.70;60.80;;;;;;5081826;28;20024;-64
2022/05/25 13:49:16;;;;;;;11.38;4.20;;;22.70;61.30;;;;;;5081848;28;20473;-64
2022/05/25 13:51:42;;;;;;;4.57;3.28;;;22.70;62.10;;;;;;5080910;28;20027;-64
2022/05/25 13:54:26;;;;;;;8.07;3.60;;;22.50;62.10;;;;;;5081300;28;20017;-65